Flight Track Log - Related Links

Times and Time Zones

All times are in EDT time to prevent confusion due to time zone crossing. See the N860BA flight status page for this flight to view local times or setup timezone preferences in your user account.

Time Position Orientation Groundspeed Altitude Reporting Facility
EDT Latitude Longitude Course Direction KTS MPH feet Rate Location/Type
07:27PM 30.1053 -97.7194 337° Northwest 254 292 6,600  Level Houston Center
07:28PM 30.1756 -97.7572 335° Northwest 277 319 9,700 2,468 Climbing Houston Center
07:29PM 30.2606 -97.7856 344° North 300 345 11,700 2,129 Climbing Houston Center
07:30PM 30.3553 -97.8228 341° North 344 396 14,100 1,645 Climbing Houston Center
07:31PM 30.4564 -97.8617 342° North 370 426 15,100 484 Climbing Houston Center
07:32PM 30.6053 -97.6963 323° Northwest  Level FlightAware Approximate
07:32PM 30.5681 -97.9036 342° North 406 467 15,100  Level Houston Center
07:33PM 30.6744 -97.7539 337° Northwest  Level FlightAware Approximate
07:34PM 30.6803 -97.9475 341° North 416 479 15,000  Level Houston Center
07:35PM 30.7917 -98.0000 338° Northwest 423 487 15,000 48 Level Houston Center
07:36PM 30.9067 -98.0378 344° North 426 490 15,100  Climbing Houston Center
07:37PM 31.0283 -98.0819 343° North 394 453 15,000 -49 Descending Houston Center
07:38PM 31.1256 -98.1219 341° North 408 470 15,000 50 Level Fort Worth Center
07:39PM 31.2383 -98.1397 352° North 409 471 15,100  Climbing Fort Worth Center
07:40PM 31.3469 -98.1067 15° North 394 453 15,000  Descending Fort Worth Center
07:41PM 31.4536 -98.0708 16° North 394 453 15,100  Climbing Fort Worth Center
07:42PM 31.5667 -98.0328 16° North 406 467 15,000 -50 Descending Fort Worth Center
07:43PM 31.6881 -97.9919 16° North 411 473 15,000 -200 Level Fort Worth Center
07:44PM 31.8050 -97.9536 16° North 421 484 14,600 -550 Descending Fort Worth Center
07:45PM 31.9181 -97.9150 16° North 421 484 13,900 -750 Descending Fort Worth Center
07:46PM 32.0308 -97.8767 16° North 421 484 13,100 -1,100 Descending Fort Worth Center
07:47PM 32.1250 -97.8453 16° North 404 465 11,700 -1,600 Descending Fort Worth Center
07:48PM 32.2272 -97.8111 16° North 359 413 9,900 -1,550 Descending Fort Worth Center
07:49PM 32.3006 -97.7869 16° North 314 361 8,600 -1,400 Descending Fort Worth Center
07:50PM 32.3903 -97.7553 17° North 297 342 7,100 -1,300 Descending Fort Worth Center
07:51PM 32.4614 -97.7311 16° North 297 342 6,000 -550 Descending Fort Worth Center
07:52PM 32.5261 -97.6572 44° Northeast 284 327 6,000 -300 Level Fort Worth Center
07:53PM 32.5889 -97.6083 33° Northeast 284 327 5,400 -950 Descending Fort Worth Center
07:54PM 32.6622 -97.5517 33° Northeast 289 333 4,100 -908 Descending Fort Worth Center
07:55PM 32.7186 -97.5097 32° Northeast 275 316 3,600 -504 Descending Fort Worth Center
07:56PM 32.7853 -97.4678 28° Northeast 253 291 3,000 -586 Descending Fort Worth Center
07:57PM 32.8458 -97.4158 36° Northeast 228 262 2,300 -595 Descending Fort Worth Center
07:58PM 32.8667 -97.3814 54° Northeast 176 203 1,800 -700 Descending Fort Worth Center
07:59PM 32.8333 -97.3664 159° South 73 84 900 -450 Descending Fort Worth Center
08:00PM 32.8356 -97.3392 84° East 73 84 900 2,550 Level Fort Worth Center
08:01PM 32.8292 -97.3144 107° East 73 84 6,000 2,550 Climbing Fort Worth Center
08:02PM 32.8250 -97.2897 101° East 73 84 6,000  Level Fort Worth Center
08:04PM 32.8167 -97.3500 220° Southwest  Level FlightAware Approximate
08:11PM 32.8198 -97.3624 220° Southwest  Level Estimated
08:12PM 32.8198 -97.3624 220° Southwest  Level Estimated
08:13PM 32.8198 -97.3624 220° Southwest  Level Estimated

Login

Don't have an account? Register now (free) for customized features, flight alerts, and more!